Ridgedale, MO (65739)

2:29 PM CDT on April 28, 2015 (GMT -0500)
Thousand Hills Golf Resort | | Change Station
CLOSE
Current Station
Personal Weather Station
Location: Branson, MO
Elevation: 804 ft
Nearby Weather Stations

Elev 804 ft 36.63 °N, 93.26 °W | Updated 4 minutes ago

Mostly Cloudy
Mostly Cloudy
64.3 °F
Feels Like 64.3 °F
N
1.0
Wind Variable Wind from East
Gusts 1.0 mph

Today
High -- | Low -- °F
--% Chance of Precip.
Yesterday
High -- | Low -- °F
Precip. -- in
6:23 AM 7:58 PM
Waxing Gibbous, 75% visible
Pressure 30.07 in
Visibility 10.0 miles
Clouds Mostly Cloudy 15000 ft
Overcast 25000 ft
Dew Point 44 °F
Humidity 48%
Rainfall 0.00 in
Snow Depth Not available.
UV 3 out of 12
Pollen 8.30 out of 12
Air Quality Not available.
Flu Activity Local Activity
METAR KBBG 281847Z 04006KT 10SM BKN150 OVC250 16/03 A3007

More Conditions Fewer Conditions

Pressure 30.07 in
Visibility 10.0 miles
Clouds Mostly Cloudy 15000 ft
Overcast 25000 ft
Dew Point 44 °F
Humidity 48%
Rainfall 0.00 in
Snow Depth Not available.
UV 3 out of 12
Pollen 8.30 out of 12
Air Quality Not available.
Flu Activity Local Activity
METAR KBBG 281847Z 04006KT 10SM BKN150 OVC250 16/03 A3007

More Conditions Fewer Conditions

10-Day Weather Forecast

Almanac

Astronomy

Apr. 28, 2015 Rise Set
Actual Time
Civil Twilight
Nautical Twilight
Astronomical Twilight
Moon
Length of Visible Light
Length of Day
Tomorrow will be .
, % of the Moon is Illuminated

Today's Extremes

State Highs State Lows

Community

WunderPhotos

Upload Photos

1,817,735 photos uploaded!

WunderBlogs® & News

Nearby

Air Quality

  Air Quality AQ Index Pollutant
Not available.

Snow Depth

Station Depth Elevation

Earthquake Activity

City Distance Mag. Time & Date
Minimum magnitude displayed is 2.5.

Coastal Water Temperatures

Place Temperature

Stations

Nearby Weather Stations

Station Location Temp. Windchill Dew Point Humidity Wind Precip. Elev Updated Type